Time;durP1;ratioP1;P1;durP2;ratioP2;P2;SDS_P1;SDS_P2;PMS_P1;PMS_P2;Temp;Humidity;BMP_temperature;BMP_pressure;BME280_temperature;BME280_humidity;BME280_pressure;Samples;Min_cycle;Max_cycle;Signal;HPM_P1;HPM_P2
2022/06/20 00:01:46;;;;;;;16.83;6.60;;;;;;;25.10;56.22;97319.91;5034918;28;20297;-70
2022/06/20 00:04:19;;;;;;;11.10;6.28;;;;;;;25.14;56.36;97324.38;5034874;28;20296;-70
2022/06/20 00:06:46;;;;;;;9.63;6.22;;;;;;;24.98;56.88;97317.09;5034578;28;20636;-70
2022/06/20 00:09:13;;;;;;;17.67;7.15;;;;;;;24.96;56.96;97322.09;5034653;28;20226;-70
2022/06/20 00:11:42;;;;;;;13.10;6.47;;;;;;;24.91;56.97;97323.06;5034420;28;20205;-70
2022/06/20 00:14:14;;;;;;;12.25;6.93;;;;;;;24.90;57.41;97312.50;5034687;28;20225;-70
2022/06/20 00:16:41;;;;;;;12.40;6.82;;;;;;;24.90;57.28;97315.22;5016712;28;20636;-69
2022/06/20 00:19:09;;;;;;;16.02;7.13;;;;;;;24.90;57.26;97316.03;5034497;28;20317;-70
2022/06/20 00:21:36;;;;;;;14.77;6.60;;;;;;;24.78;58.15;97315.16;5034218;28;20681;-70
2022/06/20 00:24:03;;;;;;;12.98;6.32;;;;;;;24.80;57.75;97302.00;5034234;28;20212;-70
2022/06/20 00:26:30;;;;;;;13.85;6.50;;;;;;;24.85;57.79;97294.47;5034496;28;20205;-70
2022/06/20 00:28:57;;;;;;;15.45;6.28;;;;;;;24.68;59.00;97297.28;5034332;28;20317;-70
2022/06/20 00:31:24;;;;;;;13.15;6.57;;;;;;;24.60;58.86;97292.66;5034361;28;20209;-70
2022/06/20 00:33:50;;;;;;;14.25;6.45;;;;;;;24.51;59.59;97300.03;5034006;28;20213;-70
2022/06/20 00:36:17;;;;;;;15.57;6.65;;;;;;;24.51;59.44;97299.25;5034209;28;20226;-70
2022/06/20 00:38:46;;;;;;;18.02;7.32;;;;;;;24.50;59.80;97292.19;5016700;28;20253;-70
2022/06/20 00:41:20;;;;;;;12.48;6.68;;;;;;;24.45;59.80;97297.81;5034162;28;20213;-70
2022/06/20 00:43:49;;;;;;;10.90;6.57;;;;;;;24.46;59.94;97304.88;5034191;28;20269;-70
2022/06/20 00:46:20;;;;;;;14.07;6.57;;;;;;;24.42;59.62;97315.56;5034121;28;20213;-70
2022/06/20 00:48:53;;;;;;;14.45;6.25;;;;;;;24.48;59.20;97335.22;5033833;28;20233;-70
2022/06/20 00:51:33;;;;;;;12.80;6.68;;;;;;;24.41;59.76;97334.91;5033754;28;20793;-70
2022/06/20 00:54:12;;;;;;;11.13;6.63;;;;;;;24.46;59.27;97340.19;5033717;28;20198;-70
2022/06/20 00:56:53;;;;;;;14.80;6.55;;;;;;;24.56;58.74;97345.28;5034291;28;20210;-70
2022/06/20 00:59:33;;;;;;;12.18;6.70;;;;;;;24.57;58.45;97352.28;5033883;28;20280;-70
2022/06/20 01:02:00;;;;;;;9.18;6.00;;;;;;;24.72;57.91;97339.00;5033926;28;20204;-70
2022/06/20 01:04:38;;;;;;;14.02;7.15;;;;;;;24.56;59.21;97348.00;5033203;28;20210;-70
2022/06/20 01:07:09;;;;;;;11.55;7.43;;;;;;;24.29;64.89;97329.38;5033809;28;20273;-71
2022/06/20 01:09:40;;;;;;;17.42;9.05;;;;;;;23.69;73.75;97334.06;5033443;28;20236;-70
2022/06/20 01:12:12;;;;;;;17.63;9.20;;;;;;;23.03;81.92;97339.88;5033779;28;20616;-70
2022/06/20 01:14:38;;;;;;;20.08;10.57;;;;;;;22.68;90.91;97324.63;5033426;28;20720;-70
2022/06/20 01:17:15;;;;;;;18.63;9.88;;;;;;;22.30;92.56;97324.25;5033276;28;20226;-70
2022/06/20 01:20:03;;;;;;;16.98;10.18;;;;;;;22.23;96.63;97313.09;5016058;28;20236;-70
2022/06/20 01:23:17;;;;;;;17.73;9.60;;;;;;;21.99;96.00;97318.06;5033263;28;20697;-70
2022/06/20 01:25:58;;;;;;;16.00;8.93;;;;;;;22.27;83.54;97321.38;4980043;28;20208;-70
2022/06/20 01:28:30;;;;;;;18.17;11.13;;;;;;;22.15;98.93;97315.75;5033475;28;20256;-70
2022/06/20 01:30:58;;;;;;;15.83;9.20;;;;;;;22.54;83.24;97321.22;5033574;28;20232;-70
2022/06/20 01:33:24;;;;;;;16.40;9.77;;;;;;;22.53;85.71;97312.31;5033514;28;20201;-69
2022/06/20 01:38:38;;;;;;;16.07;9.20;;;;;;;22.31;92.67;97306.91;5012708;28;20226;-70
2022/06/20 01:43:51;;;;;;;18.20;10.17;;;;;;;22.27;96.24;97297.00;5033572;28;20256;-70
2022/06/20 01:46:17;;;;;;;16.93;10.27;;;;;;;22.04;97.32;97295.47;5033128;28;20204;-70
2022/06/20 01:48:50;;;;;;;16.63;10.57;;;;;;;22.02;97.80;97308.50;5032988;28;20328;-70
2022/06/20 01:51:21;;;;;;;12.00;9.77;;;;;;;21.86;99.04;97310.81;5032989;28;20209;-70
2022/06/20 01:53:50;;;;;;;14.33;9.93;;;;;;;21.90;99.06;97317.19;5016047;28;20273;-70
2022/06/20 01:56:19;;;;;;;15.17;10.13;;;;;;;21.90;99.34;97319.09;5015705;28;20313;-70
2022/06/20 01:59:07;;;;;;;16.23;11.27;;;;;;;21.73;100.00;97317.06;5033196;28;20312;-70
2022/06/20 02:01:37;;;;;;;16.83;10.87;;;;;;;21.83;100.00;97318.72;5033211;28;20201;-70
2022/06/20 02:04:08;;;;;;;19.10;11.57;;;;;;;21.88;100.00;97318.63;5033280;28;20218;-70
2022/06/20 02:06:34;;;;;;;17.60;10.83;;;;;;;21.98;100.00;97319.13;5033715;28;20198;-70
2022/06/20 02:09:01;;;;;;;16.43;10.73;;;;;;;22.06;100.00;97312.97;5033063;28;20316;-70
2022/06/20 02:11:38;;;;;;;16.40;11.77;;;;;;;22.09;100.00;97317.78;5032819;28;20687;-70
2022/06/20 02:14:13;;;;;;;16.10;11.37;;;;;;;22.09;100.00;97315.09;5033165;28;20252;-70
2022/06/20 02:16:44;;;;;;;16.37;11.10;;;;;;;22.06;100.00;97306.78;5035884;28;20320;-70
2022/06/20 02:19:15;;;;;;;18.50;10.77;;;;;;;22.11;100.00;97301.25;5019666;28;20320;-70
2022/06/20 02:21:45;;;;;;;13.60;10.73;;;;;;;22.16;100.00;97293.75;5036841;28;20195;-70
2022/06/20 02:24:17;;;;;;;17.33;11.23;;;;;;;22.24;100.00;97297.66;5036765;28;20208;-70
2022/06/20 02:26:49;;;;;;;16.67;11.40;;;;;;;22.23;100.00;97293.31;5037250;28;20196;-70
2022/06/20 02:29:22;;;;;;;19.87;12.00;;;;;;;22.27;100.00;97286.97;5036626;28;20309;-70
2022/06/20 02:31:55;;;;;;;13.70;11.10;;;;;;;22.29;100.00;97295.59;5036675;28;20229;-70
2022/06/20 02:34:25;;;;;;;12.07;9.60;;;;;;;22.35;100.00;97294.34;5003209;28;20277;-70
2022/06/20 02:36:53;;;;;;;15.27;10.80;;;;;;;22.24;100.00;97284.13;5036226;28;20260;-70
2022/06/20 02:39:21;;;;;;;16.27;11.80;;;;;;;22.30;100.00;97294.47;5036436;28;20266;-70
2022/06/20 02:41:51;;;;;;;14.83;11.13;;;;;;;22.19;100.00;97297.75;5036460;28;20202;-70
2022/06/20 02:44:20;;;;;;;15.60;10.40;;;;;;;22.08;100.00;97291.84;5036397;28;20210;-69
2022/06/20 02:46:49;;;;;;;16.80;10.20;;;;;;;22.10;100.00;97316.69;5019025;28;20285;-70
2022/06/20 02:49:21;;;;;;;19.30;10.60;;;;;;;22.04;100.00;97312.50;5035992;28;20683;-70
2022/06/20 02:51:52;;;;;;;14.20;10.70;;;;;;;22.06;100.00;97331.16;5019977;28;20602;-69
2022/06/20 02:54:22;;;;;;;18.53;10.43;;;;;;;22.06;100.00;97321.09;5035951;28;20717;-70
2022/06/20 02:56:52;;;;;;;13.20;9.87;;;;;;;22.17;100.00;97318.94;5036140;28;20250;-70
2022/06/20 02:59:33;;;;;;;13.03;10.27;;;;;;;22.10;100.00;97315.88;5035945;28;20308;-69
2022/06/20 03:02:07;;;;;;;14.60;11.93;;;;;;;22.03;100.00;97316.31;5019247;28;20284;-70
2022/06/20 03:04:36;;;;;;;14.77;11.63;;;;;;;22.05;100.00;97330.34;5035817;28;20270;-69
2022/06/20 03:07:10;;;;;;;16.03;10.37;;;;;;;21.97;100.00;97330.31;5018399;28;20209;-70
2022/06/20 03:09:40;;;;;;;17.00;10.23;;;;;;;22.06;100.00;97329.22;5035530;28;20316;-70
2022/06/20 03:12:09;;;;;;;12.70;10.23;;;;;;;22.09;100.00;97341.34;5035794;28;20202;-70
2022/06/20 03:14:45;;;;;;;17.83;11.37;;;;;;;22.00;100.00;97335.06;5035803;28;20233;-70
2022/06/20 03:17:17;;;;;;;17.17;10.90;;;;;;;21.97;100.00;97333.00;5035377;28;20703;-70
2022/06/20 03:19:48;;;;;;;15.87;10.90;;;;;;;21.93;100.00;97340.13;5035677;28;20225;-70
2022/06/20 03:22:19;;;;;;;21.70;12.20;;;;;;;21.85;100.00;97341.69;5035327;28;20273;-70
2022/06/20 03:24:47;;;;;;;18.30;12.30;;;;;;;21.87;100.00;97338.66;5035592;28;20190;-70
2022/06/20 03:27:21;;;;;;;18.70;12.43;;;;;;;21.76;100.00;97342.72;5034757;28;20217;-70
2022/06/20 03:29:54;;;;;;;19.03;12.37;;;;;;;21.59;100.00;97370.41;5018556;28;20236;-70
2022/06/20 03:32:21;;;;;;;13.87;9.67;;;;;;;21.67;100.00;97394.03;5018286;28;20641;-70
2022/06/20 03:34:48;;;;;;;13.87;8.60;;;;;;;21.91;97.97;97421.63;5034948;28;20209;-70
2022/06/20 03:37:14;;;;;;;9.53;7.77;;;;;;;21.95;97.01;97413.69;5035142;28;20230;-70
2022/06/20 03:39:40;;;;;;;12.97;8.33;;;;;;;21.96;93.61;97450.47;5035052;28;20238;-70
2022/06/20 03:42:07;;;;;;;17.30;8.90;;;;;;;21.88;92.75;97453.94;5035028;28;20298;-70
2022/06/20 03:44:45;;;;;;;17.07;9.97;;;;;;;21.65;93.53;97449.53;5034933;28;20216;-70
2022/06/20 03:47:18;;;;;;;16.27;10.30;;;;;;;21.35;98.55;97469.13;5034918;28;20182;-70
2022/06/20 03:49:58;;;;;;;14.73;10.00;;;;;;;21.11;97.29;97455.00;5035075;28;20325;-70
2022/06/20 03:52:29;;;;;;;19.30;10.00;;;;;;;21.01;95.10;97452.47;5017706;28;20220;-70
2022/06/20 03:54:59;;;;;;;18.80;10.17;;;;;;;20.70;100.00;97451.44;5034779;28;20636;-70
2022/06/20 03:57:34;;;;;;;20.67;10.40;;;;;;;20.33;100.00;97438.84;5034872;28;20276;-70
2022/06/20 04:00:11;;;;;;;18.63;11.10;;;;;;;20.28;100.00;97443.53;5034726;28;20655;-70
2022/06/20 04:02:46;;;;;;;20.70;11.70;;;;;;;20.11;100.00;97454.06;5034820;28;20269;-70
2022/06/20 04:05:21;;;;;;;18.17;10.60;;;;;;;20.13;100.00;97474.28;5017080;28;20623;-70
2022/06/20 04:07:56;;;;;;;20.13;10.10;;;;;;;20.14;100.00;97486.66;5034429;28;20265;-70
2022/06/20 04:13:26;;;;;;;17.70;10.63;;;;;;;20.02;100.00;97502.47;5034727;28;20181;-70
2022/06/20 04:16:03;;;;;;;16.93;11.60;;;;;;;19.94;100.00;97496.94;5034118;28;20194;-70
2022/06/20 04:18:40;;;;;;;15.30;10.53;;;;;;;19.85;100.00;97487.88;5034314;28;20308;-70
2022/06/20 04:21:37;;;;;;;14.30;9.60;;;;;;;19.80;100.00;97491.44;5017263;28;20196;-70
2022/06/20 04:24:21;;;;;;;15.77;9.70;;;;;;;19.81;100.00;97494.94;5016301;28;20655;-70
2022/06/20 04:26:58;;;;;;;16.57;9.67;;;;;;;19.89;100.00;97494.31;5033790;28;20630;-70
2022/06/20 04:29:52;;;;;;;17.47;10.50;;;;;;;19.83;100.00;97484.66;5034176;28;20236;-70
2022/06/20 04:32:37;;;;;;;15.73;10.40;;;;;;;19.94;100.00;97494.22;5034066;28;20193;-70
2022/06/20 04:35:27;;;;;;;13.30;9.37;;;;;;;19.85;100.00;97507.56;5034402;28;20277;-69
2022/06/20 04:38:08;;;;;;;19.87;9.53;;;;;;;19.77;100.00;97533.28;5033984;28;20644;-70
2022/06/20 04:40:45;;;;;;;14.77;9.73;;;;;;;19.74;100.00;97543.84;5016271;28;20628;-70
2022/06/20 04:43:22;;;;;;;17.13;8.33;;;;;;;19.75;100.00;97563.56;5016152;28;20198;-69
2022/06/20 04:46:15;;;;;;;12.93;9.93;;;;;;;19.76;100.00;97573.25;5033636;28;20212;-70
2022/06/20 04:48:41;;;;;;;14.23;8.53;;;;;;;19.73;100.00;97542.25;5033282;28;20234;-70
2022/06/20 04:51:13;;;;;;;13.83;8.43;;;;;;;19.67;100.00;97519.13;5033474;28;20642;-70
2022/06/20 04:53:43;;;;;;;13.97;9.00;;;;;;;19.58;100.00;97507.38;5016190;28;20285;-70
2022/06/20 04:56:14;;;;;;;12.67;8.50;;;;;;;19.64;100.00;97487.38;5015989;28;20212;-69
2022/06/20 04:58:48;;;;;;;12.33;7.90;;;;;;;19.73;100.00;97485.63;5033684;28;20317;-69
2022/06/20 05:01:16;;;;;;;13.07;8.17;;;;;;;19.55;100.00;97471.00;5016233;28;20275;-69
2022/06/20 05:03:49;;;;;;;17.47;8.47;;;;;;;19.49;100.00;97477.56;5015693;28;20202;-69
2022/06/20 05:06:22;;;;;;;15.13;8.67;;;;;;;19.53;100.00;97499.34;5016478;28;20190;-69
2022/06/20 05:08:53;;;;;;;13.20;8.53;;;;;;;19.58;100.00;97532.47;5033127;28;20630;-69
2022/06/20 05:11:29;;;;;;;11.93;8.50;;;;;;;19.60;100.00;97532.97;5033199;28;20186;-69
2022/06/20 05:14:10;;;;;;;12.77;8.73;;;;;;;19.71;100.00;97524.75;5015148;28;20748;-69
2022/06/20 05:16:43;;;;;;;9.43;7.00;;;;;;;19.80;100.00;97514.94;5015650;28;20688;-69
2022/06/20 05:19:16;;;;;;;12.60;6.93;;;;;;;19.84;97.75;97510.56;5032658;28;20229;-69
2022/06/20 05:21:46;;;;;;;14.93;7.53;;;;;;;19.87;100.00;97515.34;5032693;28;20191;-69
2022/06/20 05:24:17;;;;;;;12.10;7.17;;;;;;;19.94;97.19;97521.22;5015282;28;20628;-69
2022/06/20 05:26:47;;;;;;;11.57;7.17;;;;;;;19.78;100.00;97518.69;5033012;28;20192;-69
2022/06/20 05:29:25;;;;;;;12.57;7.50;;;;;;;19.79;100.00;97508.72;5032547;28;20701;-69
2022/06/20 05:31:54;;;;;;;12.47;7.80;;;;;;;19.81;100.00;97506.53;5032838;28;20198;-69
2022/06/20 05:34:27;;;;;;;12.87;7.17;;;;;;;19.73;100.00;97522.56;5015252;28;20301;-69
2022/06/20 05:37:04;;;;;;;10.77;6.43;;;;;;;19.77;100.00;97523.59;5032236;28;20260;-69
2022/06/20 05:39:45;;;;;;;11.83;7.47;;;;;;;19.80;100.00;97531.13;5032904;28;20226;-69
2022/06/20 05:42:15;;;;;;;13.07;8.43;;;;;;;19.81;100.00;97543.50;5032478;28;20194;-69
2022/06/20 05:44:42;;;;;;;14.83;9.03;;;;;;;19.93;100.00;97562.78;5032886;28;20214;-70
2022/06/20 05:47:33;;;;;;;12.67;8.77;;;;;;;19.84;100.00;97567.22;5032631;28;20319;-69
2022/06/20 05:50:03;;;;;;;14.00;8.57;;;;;;;19.86;100.00;97556.94;5032354;28;20317;-70
2022/06/20 05:52:30;;;;;;;13.70;9.53;;;;;;;19.91;100.00;97557.66;5036859;28;20194;-69
2022/06/20 05:55:06;;;;;;;14.07;8.37;;;;;;;20.01;100.00;97564.81;5037100;28;20205;-69
2022/06/20 05:57:35;;;;;;;14.60;7.90;;;;;;;19.98;100.00;97554.63;5036084;28;20692;-69
2022/06/20 06:00:08;;;;;;;15.80;7.77;;;;;;;20.00;100.00;97563.22;5036602;28;20218;-69
2022/06/20 06:02:43;;;;;;;12.40;7.27;;;;;;;20.03;100.00;97560.72;5036705;28;20286;-69
2022/06/20 06:05:28;;;;;;;15.37;7.67;;;;;;;20.09;100.00;97562.31;5037281;28;20276;-69
2022/06/20 06:07:58;;;;;;;13.70;7.93;;;;;;;20.14;100.00;97558.72;5003379;28;20734;-69
2022/06/20 06:10:32;;;;;;;11.97;8.20;;;;;;;20.15;100.00;97561.13;5036534;28;20285;-69
2022/06/20 06:13:26;;;;;;;13.83;8.10;;;;;;;20.26;100.00;97546.38;5035952;28;20186;-69
2022/06/20 06:18:59;;;;;;;11.53;8.00;;;;;;;20.29;100.00;97550.41;5036451;28;20609;-70
2022/06/20 06:21:28;;;;;;;11.13;7.97;;;;;;;20.36;100.00;97562.47;5035785;28;20194;-69
2022/06/20 06:23:56;;;;;;;14.37;8.67;;;;;;;20.39;100.00;97561.84;5036292;28;20312;-70
2022/06/20 06:26:22;;;;;;;16.60;9.37;;;;;;;20.43;100.00;97567.50;5035823;28;20296;-70
2022/06/20 06:28:51;;;;;;;16.77;9.20;;;;;;;20.33;100.00;97562.22;5036494;28;20225;-70
2022/06/20 06:31:23;;;;;;;13.87;8.10;;;;;;;20.37;100.00;97558.66;5018278;28;20297;-70
2022/06/20 06:33:51;;;;;;;15.07;8.43;;;;;;;20.49;100.00;97560.91;5035722;28;20197;-70
2022/06/20 06:36:31;;;;;;;17.33;9.30;;;;;;;20.59;100.00;97544.53;5034525;28;20574;-70
2022/06/20 06:39:10;;;;;;;12.87;7.47;;;;;;;20.76;99.99;97550.19;5034657;28;20222;-70
2022/06/20 06:41:42;;;;;;;11.17;8.00;;;;;;;20.71;96.35;97555.69;5017372;28;20190;-70
2022/06/20 06:44:25;;;;;;;10.37;7.50;;;;;;;21.02;93.10;97557.59;5034905;28;20618;-70
2022/06/20 06:46:53;;;;;;;13.17;7.83;;;;;;;21.30;92.97;97566.56;5035053;28;20186;-70
2022/06/20 06:49:31;;;;;;;19.07;7.57;;;;;;;21.25;91.64;97566.66;5034832;28;20586;-70
2022/06/20 06:52:16;;;;;;;12.97;7.37;;;;;;;21.29;91.60;97576.56;5035712;28;20276;-70
2022/06/20 06:54:42;;;;;;;12.13;7.50;;;;;;;21.41;91.81;97578.78;5035982;28;20194;-70
2022/06/20 06:57:27;;;;;;;13.23;7.50;;;;;;;21.42;91.38;97564.16;5035639;28;20229;-70
2022/06/20 07:00:06;;;;;;;13.67;8.23;;;;;;;21.33;89.86;97579.47;5036063;28;20230;-71
2022/06/20 07:02:52;;;;;;;15.10;8.57;;;;;;;21.19;98.64;97575.94;5034655;28;20268;-70
2022/06/20 07:05:38;;;;;;;20.20;8.30;;;;;;;21.26;99.35;97581.78;5035855;28;20221;-70
2022/06/20 07:08:17;;;;;;;14.87;8.67;;;;;;;21.49;97.50;97588.91;5017844;28;20226;-70
2022/06/20 07:10:58;;;;;;;12.93;7.60;;;;;;;21.67;91.27;97583.41;5018013;28;20190;-70
2022/06/20 07:13:49;;;;;;;11.90;7.47;;;;;;;21.81;90.10;97595.06;5035573;28;20305;-70
2022/06/20 07:16:23;;;;;;;13.23;7.60;;;;;;;21.99;90.34;97593.34;5035064;28;20633;-70
2022/06/20 07:18:53;;;;;;;12.63;7.53;;;;;;;21.98;86.00;97592.53;5035277;28;20230;-69
2022/06/20 07:21:23;;;;;;;14.50;7.50;;;;;;;22.08;88.52;97596.94;5035553;28;20286;-70
2022/06/20 07:24:02;;;;;;;14.43;8.10;;;;;;;22.17;89.36;97587.81;5035449;28;20213;-70
2022/06/20 07:26:41;;;;;;;14.43;7.40;;;;;;;22.24;89.54;97588.19;5035097;28;20190;-70
2022/06/20 07:29:15;;;;;;;14.60;7.63;;;;;;;22.40;86.34;97592.16;5034945;28;20659;-70
2022/06/20 07:31:46;;;;;;;14.60;7.27;;;;;;;22.47;83.38;97591.78;5035358;28;20276;-70
2022/06/20 07:34:21;;;;;;;14.48;7.28;;;;;;;22.67;83.63;97586.69;5035241;28;20280;-70
2022/06/20 07:36:53;;;;;;;11.50;6.95;;;;;;;22.81;85.24;97590.13;5035189;28;20301;-70
2022/06/20 07:39:28;;;;;;;20.40;7.60;;;;;;;22.90;78.39;97584.75;5018032;28;20357;-70
2022/06/20 07:41:54;;;;;;;13.25;6.95;;;;;;;22.91;75.57;97581.75;5034850;28;20284;-70
2022/06/20 07:44:42;;;;;;;11.45;5.53;;;;;;;23.02;75.29;97583.06;5034966;28;20206;-70
2022/06/20 07:47:25;;;;;;;13.10;6.70;;;;;;;23.15;72.63;97581.41;5034946;28;20190;-70
2022/06/20 07:49:56;;;;;;;9.20;6.47;;;;;;;23.21;72.30;97575.59;5034418;28;20240;-70
2022/06/20 07:52:35;;;;;;;14.57;6.82;;;;;;;23.24;75.23;97585.00;5034756;28;20212;-69
2022/06/20 07:55:08;;;;;;;12.43;6.88;;;;;;;23.55;72.37;97586.59;5034740;28;20285;-69
2022/06/20 07:57:41;;;;;;;11.52;6.35;;;;;;;23.81;71.69;97589.38;5016990;28;20220;-70
2022/06/20 08:00:14;;;;;;;9.77;6.40;;;;;;;23.81;71.43;97587.47;5016925;28;20648;-70
2022/06/20 08:02:47;;;;;;;12.90;6.38;;;;;;;23.91;68.65;97599.97;5034297;28;20194;-70
2022/06/20 08:05:19;;;;;;;13.80;6.05;;;;;;;24.05;71.09;97606.91;5016787;28;20198;-70
2022/06/20 08:07:54;;;;;;;15.93;6.30;;;;;;;24.37;68.49;97602.97;5034450;28;20193;-70
2022/06/20 08:10:29;;;;;;;9.50;5.63;;;;;;;24.67;68.83;97602.88;5017522;28;20563;-70
2022/06/20 08:13:30;;;;;;;13.75;5.70;;;;;;;24.74;63.49;97600.44;5033874;28;20652;-70
2022/06/20 08:16:16;;;;;;;8.95;5.40;;;;;;;24.65;63.02;97593.44;5033895;28;20190;-70
2022/06/20 08:18:44;;;;;;;9.52;5.35;;;;;;;24.74;62.72;97595.00;5034047;28;20264;-70
2022/06/20 08:21:28;;;;;;;12.40;5.72;;;;;;;24.94;58.68;97602.53;5034073;28;20761;-70
2022/06/20 08:24:04;;;;;;;10.30;5.60;;;;;;;24.86;59.08;97605.22;5016909;28;20281;-70
2022/06/20 08:26:41;;;;;;;9.52;5.55;;;;;;;24.99;60.10;97613.22;5033796;28;20738;-69
2022/06/20 08:29:14;;;;;;;12.65;5.20;;;;;;;24.80;59.42;97606.53;5034161;28;20229;-69
2022/06/20 08:31:51;;;;;;;10.32;5.43;;;;;;;24.70;60.39;97617.72;5034309;28;20196;-70
2022/06/20 08:34:18;;;;;;;10.73;5.50;;;;;;;24.83;59.33;97614.06;5034181;28;20189;-70
2022/06/20 08:36:52;;;;;;;11.98;5.60;;;;;;;24.72;59.55;97607.31;5033996;28;20237;-69
2022/06/20 08:39:25;;;;;;;13.15;5.72;;;;;;;24.90;59.15;97617.06;5033725;28;20772;-70
2022/06/20 08:42:00;;;;;;;11.30;5.57;;;;;;;24.97;59.17;97620.91;5034184;28;20205;-70
2022/06/20 08:44:37;;;;;;;12.55;5.70;;;;;;;24.61;57.74;97625.09;5033902;28;20224;-70
2022/06/20 08:47:12;;;;;;;10.80;5.60;;;;;;;24.89;60.29;97620.91;5033702;28;20194;-70
2022/06/20 08:49:53;;;;;;;11.90;5.50;;;;;;;24.80;57.21;97620.13;5033432;28;20240;-70
2022/06/20 08:52:38;;;;;;;8.75;4.90;;;;;;;25.05;56.99;97620.09;5033781;28;20282;-70
2022/06/20 08:55:32;;;;;;;10.77;5.50;;;;;;;25.14;58.30;97623.59;5033179;28;20650;-70
2022/06/20 08:58:28;;;;;;;11.85;5.68;;;;;;;25.18;55.84;97632.72;5033283;28;20241;-70
2022/06/20 09:01:07;;;;;;;14.38;5.75;;;;;;;25.17;56.68;97620.25;5033504;28;20286;-69
2022/06/20 09:03:50;;;;;;;9.95;5.00;;;;;;;25.53;56.55;97619.84;5032907;28;20285;-70
2022/06/20 09:06:31;;;;;;;10.10;5.63;;;;;;;25.44;56.22;97619.91;5033039;28;20296;-70
2022/06/20 09:09:46;;;;;;;11.60;5.72;;;;;;;25.41;56.68;97625.16;5033110;28;20300;-69
2022/06/20 09:12:24;;;;;;;13.13;5.47;;;;;;;25.70;53.83;97628.75;5033183;28;20612;-69
2022/06/20 09:15:12;;;;;;;10.10;5.47;;;;;;;25.75;54.46;97633.25;5032823;28;20233;-69
2022/06/20 09:17:38;;;;;;;10.65;5.43;;;;;;;25.72;54.36;97633.88;5033161;28;20220;-69
2022/06/20 09:20:11;;;;;;;12.02;5.45;;;;;;;26.11;54.36;97630.84;5033320;28;20202;-69
2022/06/20 09:23:07;;;;;;;6.35;5.38;;;;;;;25.68;55.01;97633.75;5033253;28;20301;-69
2022/06/20 09:25:56;;;;;;;9.55;5.28;;;;;;;26.27;55.23;97620.97;5022137;28;20213;-69
2022/06/20 09:28:44;;;;;;;10.52;5.13;;;;;;;26.30;54.67;97632.03;5032680;28;20688;-69
2022/06/20 09:31:22;;;;;;;13.60;5.93;;;;;;;26.23;53.02;97636.41;5032770;28;20673;-69
2022/06/20 09:34:25;;;;;;;14.77;5.78;;;;;;;26.22;52.80;97632.06;5032931;28;20631;-69
2022/06/20 09:37:34;;;;;;;7.43;5.07;;;;;;;26.70;52.88;97640.59;5032835;28;20571;-69
2022/06/20 09:40:35;;;;;;;13.70;5.43;;;;;;;26.93;51.41;97630.94;5018486;28;20672;-68
2022/06/20 09:43:15;;;;;;;9.27;5.18;;;;;;;27.37;49.61;97632.97;5033327;28;20186;-68
2022/06/20 09:45:59;;;;;;;8.73;5.15;;;;;;;27.55;51.15;97633.56;5015487;28;20226;-68
2022/06/20 09:49:15;;;;;;;8.63;5.30;;;;;;;27.25;49.73;97630.19;5033277;28;20317;-70
2022/06/20 09:51:58;;;;;;;10.18;5.35;;;;;;;27.46;49.82;97633.69;5014605;28;20733;-69
2022/06/20 09:55:02;;;;;;;9.57;5.15;;;;;;;27.65;49.43;97631.22;5032814;28;20617;-69
2022/06/20 09:57:53;;;;;;;8.98;4.25;;;;;;;27.44;49.23;97622.28;5032538;28;20194;-69
2022/06/20 10:00:25;;;;;;;8.77;5.38;;;;;;;27.40;49.51;97626.81;5032745;28;20205;-70
2022/06/20 10:03:23;;;;;;;9.90;5.82;;;;;;;27.62;48.90;97618.22;5032416;28;20277;-69
2022/06/20 10:06:03;;;;;;;12.38;5.55;;;;;;;27.57;50.70;97634.06;4999489;28;20645;-69
2022/06/20 10:08:41;;;;;;;9.68;4.88;;;;;;;27.76;50.26;97626.13;5032544;28;20237;-68
2022/06/20 10:11:17;;;;;;;8.88;4.60;;;;;;;27.39;48.54;97627.19;5032542;28;20208;-69
2022/06/20 10:14:01;;;;;;;10.95;4.70;;;;;;;27.24;48.84;97620.41;5032566;28;20728;-69
2022/06/20 10:17:09;;;;;;;9.68;5.22;;;;;;;27.98;47.25;97618.28;5032589;28;20631;-69
2022/06/20 10:20:06;;;;;;;11.43;5.38;;;;;;;27.21;48.06;97618.34;5032704;28;20316;-69
2022/06/20 10:22:58;;;;;;;14.40;5.30;;;;;;;27.36;49.14;97617.72;5032725;28;20265;-70
2022/06/20 10:26:03;;;;;;;11.02;4.90;;;;;;;28.05;49.46;97613.06;5032708;28;20281;-70
2022/06/20 10:28:44;;;;;;;11.48;5.35;;;;;;;28.05;48.89;97610.31;4978708;28;20232;-69
2022/06/20 10:31:16;;;;;;;7.40;4.57;;;;;;;27.69;47.83;97629.41;5032308;28;20194;-69
2022/06/20 10:34:01;;;;;;;10.00;4.72;;;;;;;28.00;48.01;97629.69;5032435;28;20306;-69
2022/06/20 10:36:54;;;;;;;10.52;4.80;;;;;;;27.98;46.91;97633.91;5032745;28;20296;-69
2022/06/20 10:39:25;;;;;;;9.77;4.80;;;;;;;27.66;47.76;97635.53;5036044;28;20234;-69
2022/06/20 10:42:05;;;;;;;10.25;4.82;;;;;;;27.34;48.90;97636.38;5036535;28;20220;-69
2022/06/20 10:44:56;;;;;;;10.32;5.13;;;;;;;27.86;50.41;97642.88;5018577;28;20190;-69
2022/06/20 10:47:36;;;;;;;9.48;4.45;;;;;;;27.46;48.26;97644.59;5018293;28;20281;-69
2022/06/20 10:50:31;;;;;;;9.80;5.20;;;;;;;27.68;47.86;97637.94;5035408;28;20798;-69
2022/06/20 10:53:09;;;;;;;13.57;5.18;;;;;;;27.53;48.52;97628.44;5018324;28;20190;-69
2022/06/20 10:55:48;;;;;;;7.63;4.20;;;;;;;27.36;49.06;97631.38;5035144;28;20205;-69
2022/06/20 10:58:33;;;;;;;10.93;5.20;;;;;;;27.45;49.15;97631.28;5035263;28;20280;-69
2022/06/20 11:01:13;;;;;;;11.43;5.15;;;;;;;27.37;49.31;97630.25;5035461;28;20214;-70
2022/06/20 11:03:57;;;;;;;11.57;6.35;;;;;;;27.50;49.91;97636.53;5035673;28;20190;-69
2022/06/20 11:06:56;;;;;;;14.48;6.22;;;;;;;27.48;48.85;97644.28;5034963;28;20209;-70
2022/06/20 11:09:44;;;;;;;10.95;5.07;;;;;;;27.63;48.75;97638.94;5035081;28;20705;-70
2022/06/20 11:12:22;;;;;;;12.13;7.25;;;;;;;27.17;47.83;97653.69;5018914;28;20201;-69
2022/06/20 11:15:07;;;;;;;13.75;5.82;;;;;;;26.51;49.76;97659.31;5035157;28;20605;-69
2022/06/20 11:17:46;;;;;;;12.05;5.10;;;;;;;26.43;49.74;97649.25;5035461;28;20199;-69
2022/06/20 11:20:44;;;;;;;11.45;5.35;;;;;;;26.11;51.90;97669.00;5035052;28;20285;-70
2022/06/20 11:23:56;;;;;;;11.85;5.78;;;;;;;25.86;51.39;97667.16;5034648;28;20205;-69
2022/06/20 11:26:51;;;;;;;10.02;4.85;;;;;;;26.35;50.46;97680.91;5002559;28;20201;-70
2022/06/20 11:29:38;;;;;;;10.85;5.10;;;;;;;26.44;50.85;97675.38;5017631;28;20230;-68
2022/06/20 11:32:17;;;;;;;13.20;5.75;;;;;;;26.44;50.29;97689.03;5033778;28;20217;-69
2022/06/20 11:35:01;;;;;;;13.85;6.68;;;;;;;26.46;51.96;97694.97;5035518;28;20291;-69
2022/06/20 11:37:56;;;;;;;8.77;5.53;;;;;;;26.50;50.89;97695.91;5017252;28;20237;-68
2022/06/20 11:40:49;;;;;;;14.02;5.72;;;;;;;26.59;50.89;97692.00;5035104;28;20200;-69
2022/06/20 11:44:06;;;;;;;8.85;5.40;;;;;;;26.86;49.69;97690.69;5034960;28;20205;-70
2022/06/20 11:46:51;;;;;;;9.18;5.20;;;;;;;26.41;49.54;97689.69;5018080;28;20186;-70
2022/06/20 11:49:35;;;;;;;11.38;4.97;;;;;;;26.27;51.31;97697.28;5033950;28;20240;-70
2022/06/20 11:52:18;;;;;;;13.45;5.60;;;;;;;26.07;51.12;97708.94;5034637;28;20276;-70
2022/06/20 11:54:58;;;;;;;13.02;7.15;;;;;;;26.19;51.42;97722.69;5017822;28;20277;-70
2022/06/20 11:57:38;;;;;;;12.18;5.72;;;;;;;25.79;52.04;97711.22;5017104;28;20186;-70
2022/06/20 12:00:13;;;;;;;10.88;6.68;;;;;;;26.08;51.70;97718.69;5034310;28;20210;-71
2022/06/20 12:02:45;;;;;;;7.55;5.82;;;;;;;25.77;52.82;97718.13;5016820;28;20189;-70
2022/06/20 12:05:18;;;;;;;13.40;8.48;;;;;;;25.56;53.01;97730.84;5034359;28;20205;-69
2022/06/20 12:07:48;;;;;;;9.02;4.68;;;;;;;25.88;53.79;97730.28;5034197;28;20577;-70
2022/06/20 12:10:39;;;;;;;9.27;7.50;;;;;;;25.93;53.09;97735.59;5034475;28;20684;-70
2022/06/20 12:13:17;;;;;;;8.55;5.22;;;;;;;25.86;52.37;97743.41;5034185;28;20202;-70
2022/06/20 12:16:07;;;;;;;9.88;4.35;;;;;;;25.89;51.80;97742.78;5034084;28;20638;-70
2022/06/20 12:24:33;;;;;;;9.55;5.68;;;;;;;25.66;53.62;97749.56;5033927;28;20237;-70
2022/06/20 12:26:59;;;;;;;11.55;7.70;;;;;;;25.81;54.27;97754.47;5033825;28;20292;-70